createdAt,value
2022-12-15T00:00:36.498Z,999.64
2022-12-15T00:01:36.463Z,999.65
2022-12-15T00:02:36.624Z,999.63
2022-12-15T00:03:37.125Z,999.64
2022-12-15T00:04:36.495Z,999.63
2022-12-15T00:05:36.507Z,999.70
2022-12-15T00:06:36.558Z,999.69
2022-12-15T00:07:36.524Z,999.71
2022-12-15T00:08:36.539Z,999.68
2022-12-15T00:09:36.543Z,999.72
2022-12-15T00:10:36.557Z,999.77
2022-12-15T00:11:36.562Z,999.79
2022-12-15T00:12:36.573Z,999.79
2022-12-15T00:13:36.585Z,999.79
2022-12-15T00:14:36.592Z,999.81
2022-12-15T00:15:36.646Z,999.79
2022-12-15T00:16:36.694Z,999.81
2022-12-15T00:17:36.621Z,999.85
2022-12-15T00:18:36.638Z,999.90
2022-12-15T00:19:36.644Z,999.92
2022-12-15T00:20:36.655Z,999.94
2022-12-15T00:21:36.664Z,999.93
2022-12-15T00:22:36.673Z,999.90
2022-12-15T00:23:36.685Z,999.93
2022-12-15T00:24:36.698Z,999.94
2022-12-15T00:25:36.704Z,999.93
2022-12-15T00:26:36.711Z,999.93
2022-12-15T00:27:36.724Z,999.92
2022-12-15T00:28:36.732Z,999.91
2022-12-15T00:29:36.744Z,999.88
2022-12-15T00:30:36.755Z,999.93
2022-12-15T00:31:36.798Z,999.99
2022-12-15T00:32:36.770Z,999.97
2022-12-15T00:33:36.789Z,999.91
2022-12-15T00:34:36.796Z,999.84
2022-12-15T00:35:36.805Z,999.82
2022-12-15T00:36:36.812Z,999.81
2022-12-15T00:37:36.825Z,999.82
2022-12-15T00:38:36.840Z,999.89
2022-12-15T00:39:36.839Z,999.90
2022-12-15T00:40:36.863Z,999.92
2022-12-15T00:41:36.864Z,999.87
2022-12-15T00:42:36.872Z,999.80
2022-12-15T00:43:36.882Z,999.84
2022-12-15T00:44:36.897Z,999.84
2022-12-15T00:45:36.901Z,999.88
2022-12-15T00:46:37.005Z,999.94
2022-12-15T00:47:36.920Z,999.93
2022-12-15T00:48:36.937Z,999.97
2022-12-15T00:49:36.945Z,1000.01
2022-12-15T00:50:36.952Z,999.99
2022-12-15T00:51:36.959Z,999.98
2022-12-15T00:52:36.977Z,999.96
2022-12-15T00:53:36.986Z,1000.01
2022-12-15T00:54:36.996Z,999.97
2022-12-15T00:55:37.004Z,999.94
2022-12-15T00:56:37.021Z,999.94
2022-12-15T00:57:37.020Z,999.91
2022-12-15T00:58:37.033Z,999.95
2022-12-15T00:59:37.041Z,999.95
2022-12-15T01:00:37.051Z,999.98
2022-12-15T01:01:37.288Z,999.96
2022-12-15T01:02:37.237Z,999.93
2022-12-15T01:03:37.673Z,999.93
2022-12-15T01:04:37.092Z,999.93
2022-12-15T01:05:37.098Z,999.98
2022-12-15T01:06:37.113Z,1000.01
2022-12-15T01:07:37.121Z,1000.04
2022-12-15T01:08:37.132Z,1000.01
2022-12-15T01:09:37.139Z,1000.03
2022-12-15T01:10:37.162Z,1000.03
2022-12-15T01:11:37.160Z,1000.04
2022-12-15T01:12:37.183Z,1000.00
2022-12-15T01:13:37.182Z,999.97
2022-12-15T01:14:37.190Z,1000.03
2022-12-15T01:15:37.202Z,1000.00
2022-12-15T01:16:37.261Z,1000.04
2022-12-15T01:17:37.221Z,1000.05
2022-12-15T01:18:37.237Z,1000.06
2022-12-15T01:19:37.240Z,1000.09
2022-12-15T01:20:37.248Z,1000.15
2022-12-15T01:21:37.261Z,1000.17
2022-12-15T01:22:37.269Z,1000.16
2022-12-15T01:23:37.278Z,1000.18
2022-12-15T01:24:37.291Z,1000.09
2022-12-15T01:25:37.299Z,1000.07
2022-12-15T01:26:37.309Z,1000.02
2022-12-15T01:27:37.320Z,1000.06
2022-12-15T01:28:37.334Z,1000.10
2022-12-15T01:29:37.339Z,1000.10
2022-12-15T01:30:37.349Z,1000.08
2022-12-15T01:31:37.383Z,1000.08
2022-12-15T01:32:41.403Z,1000.12
2022-12-15T01:33:37.378Z,1000.16
2022-12-15T01:34:37.393Z,1000.17
2022-12-15T01:35:37.404Z,1000.14
2022-12-15T01:36:37.414Z,1000.16
2022-12-15T01:37:37.422Z,1000.17
2022-12-15T01:38:37.435Z,1000.17
2022-12-15T01:39:37.438Z,1000.18
2022-12-15T01:40:37.457Z,1000.18
2022-12-15T01:41:37.460Z,1000.16
2022-12-15T01:42:37.473Z,1000.19
2022-12-15T01:43:37.478Z,1000.21
2022-12-15T01:44:37.498Z,1000.21
2022-12-15T01:45:37.503Z,1000.20
2022-12-15T01:46:37.563Z,1000.22
2022-12-15T01:47:37.525Z,1000.18
2022-12-15T01:48:37.529Z,1000.17
2022-12-15T01:49:37.541Z,1000.22
2022-12-15T01:50:37.554Z,1000.19
2022-12-15T01:51:37.558Z,1000.24
2022-12-15T01:52:37.572Z,1000.21
2022-12-15T01:53:37.583Z,1000.20
2022-12-15T01:54:37.592Z,1000.21
2022-12-15T01:55:37.604Z,1000.23
2022-12-15T01:56:38.173Z,1000.23
2022-12-15T01:57:37.624Z,1000.28
2022-12-15T01:58:37.634Z,1000.36
2022-12-15T01:59:37.645Z,1000.34
2022-12-15T02:00:37.698Z,1000.38
2022-12-15T02:01:37.822Z,1000.47
2022-12-15T02:02:40.431Z,1000.49
2022-12-15T02:03:37.712Z,1000.57
2022-12-15T02:04:37.698Z,1000.58
2022-12-15T02:05:37.706Z,1000.46
2022-12-15T02:06:37.717Z,1000.47
2022-12-15T02:07:37.724Z,1000.40
2022-12-15T02:08:37.737Z,1000.39
2022-12-15T02:09:37.750Z,1000.36
2022-12-15T02:10:37.759Z,1000.33
2022-12-15T02:11:37.769Z,1000.34
2022-12-15T02:12:37.779Z,1000.34
2022-12-15T02:13:37.797Z,1000.35
2022-12-15T02:14:37.799Z,1000.34
2022-12-15T02:15:37.808Z,1000.36
2022-12-15T02:16:37.864Z,1000.43
2022-12-15T02:17:37.832Z,1000.43
2022-12-15T02:18:37.842Z,1000.46
2022-12-15T02:19:37.850Z,1000.50
2022-12-15T02:20:37.865Z,1000.53
2022-12-15T02:21:37.876Z,1000.54
2022-12-15T02:22:37.886Z,1000.60
2022-12-15T02:23:37.894Z,1000.54
2022-12-15T02:24:37.908Z,1000.55
2022-12-15T02:25:37.918Z,1000.60
2022-12-15T02:26:37.925Z,1000.60
2022-12-15T02:27:37.937Z,1000.56
2022-12-15T02:28:37.949Z,1000.56
2022-12-15T02:29:37.961Z,1000.54
2022-12-15T02:30:37.971Z,1000.60
2022-12-15T02:31:38.023Z,1000.61
2022-12-15T02:32:37.993Z,1000.60
2022-12-15T02:33:38.003Z,1000.62
2022-12-15T02:34:38.014Z,1000.62
2022-12-15T02:35:38.023Z,1000.63
2022-12-15T02:36:38.201Z,1000.63
2022-12-15T02:37:38.047Z,1000.61
2022-12-15T02:38:38.060Z,1000.64
2022-12-15T02:39:38.070Z,1000.67
2022-12-15T02:40:38.081Z,1000.65
2022-12-15T02:41:38.100Z,1000.69
2022-12-15T02:42:38.103Z,1000.69
2022-12-15T02:43:38.109Z,1000.64
2022-12-15T02:44:38.121Z,1000.61
2022-12-15T02:45:38.239Z,1000.56
2022-12-15T02:46:38.142Z,1000.57
2022-12-15T02:47:38.150Z,1000.54
2022-12-15T02:48:38.169Z,1000.54
2022-12-15T02:49:38.175Z,1000.48
2022-12-15T02:50:38.187Z,1000.56
2022-12-15T02:51:38.198Z,1000.58
2022-12-15T02:52:38.204Z,1000.61
2022-12-15T02:53:38.221Z,1000.63
2022-12-15T02:54:38.230Z,1000.64
2022-12-15T02:55:38.239Z,1000.69
2022-12-15T02:56:38.250Z,1000.70
2022-12-15T02:57:38.258Z,1000.71
2022-12-15T02:58:38.274Z,1000.72
2022-12-15T02:59:38.279Z,1000.75
2022-12-15T03:00:38.352Z,1000.82
2022-12-15T03:01:38.478Z,1000.82
2022-12-15T03:02:38.437Z,1000.81
2022-12-15T03:03:38.441Z,1000.77
2022-12-15T03:04:38.335Z,1000.77
2022-12-15T03:05:38.344Z,1000.75
2022-12-15T03:06:38.356Z,1000.74
2022-12-15T03:07:38.366Z,1000.76
2022-12-15T03:08:38.377Z,1000.80
2022-12-15T03:09:38.385Z,1000.80
2022-12-15T03:10:38.397Z,1000.82
2022-12-15T03:11:38.409Z,1000.81
2022-12-15T03:12:38.419Z,1000.82
2022-12-15T03:13:38.432Z,1000.81
2022-12-15T03:14:38.441Z,1000.81
2022-12-15T03:15:38.446Z,1000.82
2022-12-15T03:16:38.522Z,1000.83
2022-12-15T03:17:38.474Z,1000.77
2022-12-15T03:18:38.482Z,1000.80
2022-12-15T03:19:38.493Z,1000.78
2022-12-15T03:20:38.513Z,1000.79
2022-12-15T03:21:38.514Z,1000.82
2022-12-15T03:22:38.525Z,1000.78
2022-12-15T03:23:38.545Z,1000.78
2022-12-15T03:24:38.544Z,1000.79
2022-12-15T03:25:38.552Z,1000.78
2022-12-15T03:26:38.565Z,1000.73
2022-12-15T03:27:38.575Z,1000.73
2022-12-15T03:28:38.588Z,1000.77
2022-12-15T03:29:38.602Z,1000.85
2022-12-15T03:30:38.605Z,1000.87
2022-12-15T03:31:38.703Z,1000.86
2022-12-15T03:32:38.627Z,1000.96
2022-12-15T03:33:38.639Z,1000.97
2022-12-15T03:34:38.658Z,1001.03
2022-12-15T03:35:38.655Z,1001.09
2022-12-15T03:36:38.673Z,1001.08
2022-12-15T03:37:38.680Z,1001.10
2022-12-15T03:38:38.692Z,1001.13
2022-12-15T03:39:38.697Z,1001.12
2022-12-15T03:40:38.718Z,1001.14
2022-12-15T03:41:38.720Z,1001.15
2022-12-15T03:42:38.735Z,1001.16
2022-12-15T03:43:38.741Z,1001.15
2022-12-15T03:44:38.753Z,1001.13
2022-12-15T03:45:38.844Z,1001.08
2022-12-15T03:46:38.777Z,1001.09
2022-12-15T03:47:38.786Z,1001.11
2022-12-15T03:48:38.811Z,1001.17
2022-12-15T03:49:38.804Z,1001.20
2022-12-15T03:50:38.817Z,1001.18
2022-12-15T03:51:38.825Z,1001.18
2022-12-15T03:52:38.841Z,1001.17
2022-12-15T03:53:38.848Z,1001.17
2022-12-15T03:54:38.857Z,1001.13
2022-12-15T03:55:38.869Z,1001.18
2022-12-15T03:56:38.881Z,1001.18
2022-12-15T03:57:38.891Z,1001.18
2022-12-15T03:58:38.908Z,1001.17
2022-12-15T03:59:38.912Z,1001.20
2022-12-15T04:00:38.925Z,1001.19
2022-12-15T04:01:39.041Z,1001.25
2022-12-15T04:02:39.096Z,1001.24
2022-12-15T04:03:39.000Z,1001.27
2022-12-15T04:04:38.971Z,1001.30
2022-12-15T04:05:38.981Z,1001.23
2022-12-15T04:06:38.988Z,1001.19
2022-12-15T04:07:39.001Z,1001.20
2022-12-15T04:08:39.016Z,1001.19
2022-12-15T04:09:39.025Z,1001.20
2022-12-15T04:10:39.036Z,1001.19
2022-12-15T04:11:39.048Z,1001.16
2022-12-15T04:12:39.060Z,1001.19
2022-12-15T04:15:11.252Z,1001.23
2022-12-15T04:16:13.629Z,1001.30
2022-12-15T04:18:14.690Z,1001.30
2022-12-15T04:19:14.698Z,1001.33
2022-12-15T04:21:19.174Z,1001.33
2022-12-15T04:22:18.675Z,1001.29
2022-12-15T04:24:22.663Z,1001.29
2022-12-15T04:25:22.668Z,1001.25
2022-12-15T04:27:27.139Z,1001.21
2022-12-15T04:28:26.649Z,1001.22
2022-12-15T04:30:19.595Z,1001.23
2022-12-15T04:31:19.617Z,1001.25
2022-12-15T04:33:29.067Z,1001.24
2022-12-15T04:34:23.549Z,1001.28
2022-12-15T04:36:27.533Z,1001.26
2022-12-15T04:37:27.538Z,1001.30
2022-12-15T04:39:32.013Z,1001.37
2022-12-15T04:40:31.556Z,1001.38
2022-12-15T04:42:35.518Z,1001.42
2022-12-15T04:43:35.519Z,1001.40
2022-12-15T04:45:39.993Z,1001.38
2022-12-15T04:46:39.630Z,1001.38
2022-12-15T04:48:43.498Z,1001.33
2022-12-15T04:49:43.498Z,1001.35
2022-12-15T04:51:47.968Z,1001.34
2022-12-15T04:52:47.492Z,1001.40
2022-12-15T04:54:51.483Z,1001.37
2022-12-15T04:55:51.486Z,1001.35
2022-12-15T04:57:55.960Z,1001.28
2022-12-15T04:58:55.471Z,1001.29
2022-12-15T05:00:59.475Z,1001.25
2022-12-15T05:01:59.573Z,1001.27
2022-12-15T05:04:03.965Z,1001.27
2022-12-15T05:05:03.445Z,1001.27
2022-12-15T05:07:07.430Z,1001.28
2022-12-15T05:08:07.432Z,1001.34
2022-12-15T05:10:03.428Z,1001.36
2022-12-15T05:11:00.364Z,1001.39
2022-12-15T05:13:04.352Z,1001.44
2022-12-15T05:14:04.344Z,1001.41
2022-12-15T05:16:08.871Z,1001.44
2022-12-15T05:17:08.417Z,1001.44
2022-12-15T05:19:12.486Z,1001.41
2022-12-15T05:20:12.333Z,1001.45
2022-12-15T05:22:16.810Z,1001.38
2022-12-15T05:23:16.319Z,1001.38
2022-12-15T05:25:20.304Z,1001.36
2022-12-15T05:26:20.308Z,1001.38
2022-12-15T05:28:24.783Z,1001.40
2022-12-15T05:29:24.298Z,1001.40
2022-12-15T05:31:28.328Z,1001.36
2022-12-15T05:32:28.281Z,1001.37
2022-12-15T05:34:32.762Z,1001.34
2022-12-15T05:35:32.270Z,1001.37
2022-12-15T05:37:36.255Z,1001.48
2022-12-15T05:38:36.258Z,1001.45
2022-12-15T05:40:29.733Z,1001.45
2022-12-15T05:41:29.181Z,1001.44
2022-12-15T05:43:33.798Z,1001.47
2022-12-15T05:44:33.159Z,1001.50
2022-12-15T05:46:37.696Z,1001.55
2022-12-15T05:47:37.144Z,1001.58
2022-12-15T05:49:30.060Z,1001.62
2022-12-15T05:50:30.059Z,1001.73
2022-12-15T05:52:34.548Z,1001.76
2022-12-15T05:53:34.378Z,1001.78
2022-12-15T05:54:34.072Z,1001.77
2022-12-15T05:55:34.070Z,1001.81
2022-12-15T05:56:34.077Z,1001.80
2022-12-15T05:57:34.086Z,1001.82
2022-12-15T05:58:34.098Z,1001.85
2022-12-15T05:59:34.109Z,1001.88
2022-12-15T06:00:34.118Z,1001.87
2022-12-15T06:01:34.143Z,1001.88
2022-12-15T06:02:34.193Z,1001.93
2022-12-15T06:03:34.507Z,1001.90
2022-12-15T06:04:34.204Z,1001.96
2022-12-15T06:05:34.171Z,1001.95
2022-12-15T06:06:34.184Z,1002.00
2022-12-15T06:07:34.201Z,1001.93
2022-12-15T06:08:34.201Z,1001.97
2022-12-15T06:09:34.212Z,1001.94
2022-12-15T06:10:34.225Z,1001.95
2022-12-15T06:11:34.233Z,1001.96
2022-12-15T06:12:34.242Z,1001.96
2022-12-15T06:13:34.513Z,1001.93
2022-12-15T06:14:34.262Z,1001.96
2022-12-15T06:15:34.273Z,1001.99
2022-12-15T06:16:36.340Z,1002.01
2022-12-15T06:17:34.296Z,1002.01
2022-12-15T06:18:34.308Z,1002.06
2022-12-15T06:19:34.317Z,1002.03
2022-12-15T06:20:34.327Z,1002.03
2022-12-15T06:21:34.338Z,1002.04
2022-12-15T06:22:34.343Z,1002.06
2022-12-15T06:23:34.548Z,1002.09
2022-12-15T06:24:34.366Z,1002.04
2022-12-15T06:25:34.378Z,1002.05
2022-12-15T06:26:34.388Z,1002.05
2022-12-15T06:27:41.566Z,1002.05
2022-12-15T06:29:27.867Z,1002.07
2022-12-15T06:30:27.308Z,1002.04
2022-12-15T06:32:31.297Z,1002.09
2022-12-15T06:33:31.627Z,1002.06
2022-12-15T06:35:35.774Z,1002.08
2022-12-15T06:36:35.284Z,1002.07
2022-12-15T06:38:39.258Z,1002.06
2022-12-15T06:39:39.261Z,1002.08
2022-12-15T06:41:44.294Z,1002.02
2022-12-15T06:42:43.746Z,1002.02
2022-12-15T06:43:43.757Z,1002.04
2022-12-15T06:44:43.765Z,1002.08
2022-12-15T06:45:43.771Z,1002.10
2022-12-15T06:46:43.833Z,1002.15
2022-12-15T06:47:43.792Z,1002.15
2022-12-15T06:48:43.803Z,1002.18
2022-12-15T06:49:43.818Z,1002.25
2022-12-15T06:50:43.824Z,1002.24
2022-12-15T06:51:43.830Z,1002.24
2022-12-15T06:52:43.849Z,1002.21
2022-12-15T06:53:43.854Z,1002.17
2022-12-15T06:54:43.870Z,1002.14
2022-12-15T06:55:43.873Z,1002.10
2022-12-15T06:56:43.888Z,1002.14
2022-12-15T06:57:43.897Z,1002.15
2022-12-15T06:58:43.907Z,1002.16
2022-12-15T06:59:43.914Z,1002.18
2022-12-15T07:00:43.926Z,1002.17
2022-12-15T07:01:44.170Z,1002.16
2022-12-15T07:02:44.130Z,1002.20
2022-12-15T07:03:44.107Z,1002.26
2022-12-15T07:04:43.967Z,1002.20
2022-12-15T07:05:43.974Z,1002.22
2022-12-15T07:06:43.987Z,1002.21
2022-12-15T07:07:43.998Z,1002.20
2022-12-15T07:08:44.006Z,1002.21
2022-12-15T07:09:44.020Z,1002.20
2022-12-15T07:10:44.029Z,1002.23
2022-12-15T07:11:44.040Z,1002.22
2022-12-15T07:12:44.048Z,1002.26
2022-12-15T07:13:44.059Z,1002.21
2022-12-15T07:14:47.480Z,1002.22
2022-12-15T07:15:44.134Z,1002.24
2022-12-15T07:16:44.146Z,1002.29
2022-12-15T07:17:44.107Z,1002.31
2022-12-15T07:18:44.106Z,1002.34
2022-12-15T07:19:44.119Z,1002.32
2022-12-15T07:20:44.137Z,1002.30
2022-12-15T07:21:44.139Z,1002.29
2022-12-15T07:22:44.158Z,1002.26
2022-12-15T07:24:00.504Z,1002.25
2022-12-15T07:24:44.171Z,1002.27
2022-12-15T07:25:44.178Z,1002.26
2022-12-15T07:26:44.190Z,1002.33
2022-12-15T07:27:44.196Z,1002.28
2022-12-15T07:28:44.205Z,1002.37
2022-12-15T07:29:44.218Z,1002.42
2022-12-15T07:30:44.228Z,1002.46
2022-12-15T07:31:44.325Z,1002.49
2022-12-15T07:32:44.249Z,1002.52
2022-12-15T07:33:44.257Z,1002.56
2022-12-15T07:34:44.271Z,1002.57
2022-12-15T07:35:44.280Z,1002.55
2022-12-15T07:36:49.988Z,1002.58
2022-12-15T07:37:44.302Z,1002.62
2022-12-15T07:38:44.312Z,1002.62
2022-12-15T07:39:44.319Z,1002.61
2022-12-15T07:40:44.330Z,1002.63
2022-12-15T07:41:44.338Z,1002.64
2022-12-15T07:42:44.358Z,1002.64
2022-12-15T07:43:44.359Z,1002.68
2022-12-15T07:44:44.371Z,1002.69
2022-12-15T07:45:49.754Z,1002.71
2022-12-15T07:46:44.393Z,1002.71
2022-12-15T07:47:44.401Z,1002.74
2022-12-15T07:48:44.416Z,1002.74
2022-12-15T07:49:44.421Z,1002.75
2022-12-15T07:50:44.431Z,1002.76
2022-12-15T07:51:44.448Z,1002.73
2022-12-15T07:52:44.452Z,1002.73
2022-12-15T07:53:44.464Z,1002.75
2022-12-15T07:54:44.479Z,1002.72
2022-12-15T07:56:06.045Z,1002.79
2022-12-15T07:56:44.495Z,1002.79
2022-12-15T07:57:44.507Z,1002.83
2022-12-15T07:58:44.516Z,1002.87
2022-12-15T07:59:44.532Z,1002.87
2022-12-15T08:00:48.784Z,1002.88
2022-12-15T08:01:44.780Z,1002.92
2022-12-15T08:02:44.842Z,1002.91
2022-12-15T08:03:44.657Z,1002.91
2022-12-15T08:04:44.578Z,1002.92
2022-12-15T08:05:44.587Z,1002.88
2022-12-15T08:06:44.597Z,1002.91
2022-12-15T08:07:44.609Z,1002.93
2022-12-15T08:08:44.628Z,1002.98
2022-12-15T08:09:44.628Z,1002.98
2022-12-15T08:10:44.639Z,1002.97
2022-12-15T08:11:44.651Z,1003.02
2022-12-15T08:12:44.662Z,1003.05
2022-12-15T08:14:44.682Z,1003.01
2022-12-15T08:15:44.691Z,1003.00
2022-12-15T08:16:44.753Z,1003.00
2022-12-15T08:17:44.712Z,1002.96
2022-12-15T08:18:44.724Z,1002.92
2022-12-15T08:19:44.737Z,1002.93
2022-12-15T08:20:44.745Z,1002.91
2022-12-15T08:21:44.762Z,1002.97
2022-12-15T08:22:44.766Z,1002.97
2022-12-15T08:23:44.777Z,1002.99
2022-12-15T08:24:44.786Z,1002.94
2022-12-15T08:25:44.799Z,1002.95
2022-12-15T08:26:44.812Z,1002.96
2022-12-15T08:27:44.822Z,1003.02
2022-12-15T08:28:44.840Z,1003.05
2022-12-15T08:29:52.692Z,1003.04
2022-12-15T08:30:44.861Z,1003.06
2022-12-15T08:31:45.003Z,1003.12
2022-12-15T08:32:50.126Z,1003.09
2022-12-15T08:33:44.884Z,1003.08
2022-12-15T08:34:44.904Z,1003.07
2022-12-15T08:35:56.732Z,1003.08
2022-12-15T08:36:44.914Z,1003.02
2022-12-15T08:37:44.939Z,1002.98
2022-12-15T08:38:44.948Z,1003.00
2022-12-15T08:39:44.946Z,1003.00
2022-12-15T08:40:44.959Z,1002.97
2022-12-15T08:41:44.975Z,1002.99
2022-12-15T08:42:44.990Z,1003.01
2022-12-15T08:43:48.493Z,1003.06
2022-12-15T08:44:45.026Z,1003.04
2022-12-15T08:45:45.114Z,1003.11
2022-12-15T08:46:45.037Z,1003.12
2022-12-15T08:47:45.152Z,1003.11
2022-12-15T08:48:45.077Z,1003.11
2022-12-15T08:49:45.057Z,1003.10
2022-12-15T08:50:45.072Z,1003.11
2022-12-15T08:51:45.087Z,1003.14
2022-12-15T08:53:06.500Z,1003.14
2022-12-15T08:53:45.505Z,1003.14
2022-12-15T08:54:45.117Z,1003.16
2022-12-15T08:55:45.128Z,1003.21
2022-12-15T08:56:45.135Z,1003.23
2022-12-15T08:57:45.149Z,1003.26
2022-12-15T08:58:45.161Z,1003.22
2022-12-15T08:59:45.192Z,1003.26
2022-12-15T09:00:45.233Z,1003.26
2022-12-15T09:01:45.375Z,1003.29
2022-12-15T09:02:45.244Z,1003.26
2022-12-15T09:03:45.220Z,1003.28
2022-12-15T09:04:45.329Z,1003.26
2022-12-15T09:05:45.242Z,1003.29
2022-12-15T09:06:50.411Z,1003.28
2022-12-15T09:07:45.395Z,1003.28
2022-12-15T09:08:45.275Z,1003.22
2022-12-15T09:09:45.288Z,1003.27
2022-12-15T09:10:45.301Z,1003.29
2022-12-15T09:11:45.309Z,1003.27
2022-12-15T09:12:45.323Z,1003.32
2022-12-15T09:13:45.338Z,1003.35
2022-12-15T09:14:45.360Z,1003.37
2022-12-15T09:16:08.861Z,1003.40
2022-12-15T09:16:45.429Z,1003.41
2022-12-15T09:17:45.386Z,1003.42
2022-12-15T09:18:45.447Z,1003.40
2022-12-15T09:19:45.406Z,1003.41
2022-12-15T09:20:45.421Z,1003.40
2022-12-15T09:21:45.432Z,1003.43
2022-12-15T09:22:45.446Z,1003.41
2022-12-15T09:23:45.548Z,1003.40
2022-12-15T09:24:45.470Z,1003.36
2022-12-15T09:25:45.474Z,1003.36
2022-12-15T09:26:45.515Z,1003.34
2022-12-15T09:27:45.504Z,1003.27
2022-12-15T09:28:45.520Z,1003.28
2022-12-15T09:29:45.534Z,1003.27
2022-12-15T09:30:45.600Z,1003.24
2022-12-15T09:31:45.553Z,1003.27
2022-12-15T09:32:45.567Z,1003.27
2022-12-15T09:33:45.575Z,1003.32
2022-12-15T09:34:45.588Z,1003.34
2022-12-15T09:35:45.653Z,1003.36
2022-12-15T09:36:45.615Z,1003.41
2022-12-15T09:37:51.442Z,1003.46
2022-12-15T09:38:45.639Z,1003.47
2022-12-15T09:39:45.668Z,1003.48
2022-12-15T09:40:45.670Z,1003.48
2022-12-15T09:41:45.677Z,1003.54
2022-12-15T09:42:46.285Z,1003.50
2022-12-15T09:43:47.519Z,1003.53
2022-12-15T09:44:45.713Z,1003.49
2022-12-15T09:45:45.952Z,1003.52
2022-12-15T09:46:50.347Z,1003.54
2022-12-15T09:47:45.750Z,1003.57
2022-12-15T09:48:45.781Z,1003.62
2022-12-15T09:49:45.780Z,1003.64
2022-12-15T09:50:45.800Z,1003.66
2022-12-15T09:51:45.823Z,1003.70
2022-12-15T09:52:45.821Z,1003.70
2022-12-15T09:53:54.521Z,1003.70
2022-12-15T09:54:45.871Z,1003.74
2022-12-15T09:55:45.931Z,1003.70
2022-12-15T09:56:49.706Z,1003.73
2022-12-15T09:57:45.890Z,1003.73
2022-12-15T09:58:45.892Z,1003.76
2022-12-15T09:59:45.900Z,1003.81
2022-12-15T10:00:48.921Z,1003.76
2022-12-15T10:01:45.969Z,1003.76
2022-12-15T10:02:46.114Z,1003.73
2022-12-15T10:03:46.100Z,1003.72
2022-12-15T10:04:45.993Z,1003.73
2022-12-15T10:06:15.413Z,1003.72
2022-12-15T10:06:45.989Z,1003.76
2022-12-15T10:07:46.004Z,1003.75
2022-12-15T10:08:46.014Z,1003.75
2022-12-15T10:09:46.028Z,1003.77
2022-12-15T10:10:46.047Z,1003.76
2022-12-15T10:11:50.531Z,1003.77
2022-12-15T10:12:57.635Z,1003.77
2022-12-15T10:13:46.070Z,1003.79
2022-12-15T10:14:46.093Z,1003.82
2022-12-15T10:15:46.133Z,1003.83
2022-12-15T10:16:46.132Z,1003.81
2022-12-15T10:17:46.141Z,1003.83
2022-12-15T10:18:46.139Z,1003.80
2022-12-15T10:19:46.650Z,1003.82
2022-12-15T10:20:46.164Z,1003.80
2022-12-15T10:21:46.177Z,1003.81
2022-12-15T10:22:46.186Z,1003.78
2022-12-15T10:23:46.220Z,1003.81
2022-12-15T10:25:46.227Z,1003.78
2022-12-15T10:26:46.244Z,1003.80
2022-12-15T10:27:46.305Z,1003.81
2022-12-15T10:28:46.270Z,1003.80
2022-12-15T10:29:50.884Z,1003.76
2022-12-15T10:30:46.368Z,1003.81
2022-12-15T10:31:46.307Z,1003.83
2022-12-15T10:34:46.429Z,1003.80
2022-12-15T10:35:46.355Z,1003.78
2022-12-15T10:36:46.373Z,1003.80
2022-12-15T10:37:46.381Z,1003.77
2022-12-15T10:38:46.396Z,1003.78
2022-12-15T10:39:46.408Z,1003.77
2022-12-15T10:40:50.634Z,1003.74
2022-12-15T10:41:46.443Z,1003.77
2022-12-15T10:42:46.450Z,1003.78
2022-12-15T10:43:46.955Z,1003.77
2022-12-15T10:45:46.522Z,1003.76
2022-12-15T10:46:46.539Z,1003.75
2022-12-15T10:47:46.516Z,1003.76
2022-12-15T10:48:48.745Z,1003.72
2022-12-15T10:49:46.540Z,1003.72
2022-12-15T10:50:46.553Z,1003.68
2022-12-15T10:51:46.585Z,1003.67
2022-12-15T10:52:46.594Z,1003.68
2022-12-15T10:53:48.497Z,1003.67
2022-12-15T10:54:46.606Z,1003.66
2022-12-15T10:55:49.998Z,1003.69
2022-12-15T10:56:46.627Z,1003.68
2022-12-15T10:57:46.649Z,1003.72
2022-12-15T10:58:46.657Z,1003.71
2022-12-15T10:59:46.670Z,1003.70
2022-12-15T11:00:46.684Z,1003.74
2022-12-15T11:01:46.809Z,1003.76
2022-12-15T11:02:46.907Z,1003.77
2022-12-15T11:03:47.147Z,1003.78
2022-12-15T11:04:46.737Z,1003.77
2022-12-15T11:05:46.750Z,1003.82
2022-12-15T11:06:46.763Z,1003.79
2022-12-15T11:07:46.777Z,1003.78
2022-12-15T11:08:46.790Z,1003.78
2022-12-15T11:09:46.808Z,1003.74
2022-12-15T11:10:46.817Z,1003.78
2022-12-15T11:11:46.868Z,1003.76
2022-12-15T11:12:46.844Z,1003.76
2022-12-15T11:13:46.869Z,1003.77
2022-12-15T11:15:47.174Z,1003.88
2022-12-15T11:16:46.898Z,1003.86
2022-12-15T11:17:46.910Z,1003.87
2022-12-15T11:18:48.727Z,1003.89
2022-12-15T11:19:46.944Z,1003.88
2022-12-15T11:20:48.662Z,1003.81
2022-12-15T11:21:46.970Z,1003.79
2022-12-15T11:22:46.989Z,1003.75
2022-12-15T11:23:48.728Z,1003.77
2022-12-15T11:24:47.033Z,1003.76
2022-12-15T11:25:47.032Z,1003.79
2022-12-15T11:26:47.061Z,1003.78
2022-12-15T11:27:47.047Z,1003.81
2022-12-15T11:28:47.064Z,1003.79
2022-12-15T11:29:47.077Z,1003.74
2022-12-15T11:30:47.096Z,1003.75
2022-12-15T11:31:47.114Z,1003.71
2022-12-15T11:32:47.124Z,1003.71
2022-12-15T11:33:47.133Z,1003.64
2022-12-15T11:34:47.154Z,1003.65
2022-12-15T11:35:47.179Z,1003.60
2022-12-15T11:36:47.183Z,1003.54
2022-12-15T11:37:47.185Z,1003.56
2022-12-15T11:38:47.270Z,1003.54
2022-12-15T11:39:47.213Z,1003.54
2022-12-15T11:40:47.228Z,1003.53
2022-12-15T11:41:47.265Z,1003.54
2022-12-15T11:42:47.258Z,1003.54
2022-12-15T11:43:48.510Z,1003.55
2022-12-15T11:44:47.296Z,1003.57
2022-12-15T11:45:47.299Z,1003.60
2022-12-15T11:46:47.314Z,1003.58
2022-12-15T11:47:47.334Z,1003.62
2022-12-15T11:48:47.343Z,1003.59
2022-12-15T11:49:47.362Z,1003.58
2022-12-15T11:50:47.375Z,1003.61
2022-12-15T11:51:47.382Z,1003.59
2022-12-15T11:52:47.400Z,1003.60
2022-12-15T11:53:47.414Z,1003.62
2022-12-15T11:54:47.430Z,1003.60
2022-12-15T11:55:47.443Z,1003.56
2022-12-15T11:56:47.452Z,1003.50
2022-12-15T11:57:47.471Z,1003.50
2022-12-15T11:58:48.773Z,1003.51
2022-12-15T11:59:47.498Z,1003.49
2022-12-15T12:00:47.532Z,1003.54
2022-12-15T12:01:55.267Z,1003.51
2022-12-15T12:02:47.723Z,1003.54
2022-12-15T12:03:47.559Z,1003.48
2022-12-15T12:04:47.568Z,1003.52
2022-12-15T12:05:47.579Z,1003.51
2022-12-15T12:06:47.600Z,1003.50
2022-12-15T12:07:47.613Z,1003.47
2022-12-15T12:08:47.623Z,1003.48
2022-12-15T12:09:48.675Z,1003.48
2022-12-15T12:10:47.685Z,1003.46
2022-12-15T12:11:48.829Z,1003.51
2022-12-15T12:12:47.682Z,1003.54
2022-12-15T12:13:47.695Z,1003.54
2022-12-15T12:14:50.639Z,1003.53
2022-12-15T12:15:47.725Z,1003.54
2022-12-15T12:16:47.736Z,1003.49
2022-12-15T12:17:47.753Z,1003.49
2022-12-15T12:18:50.361Z,1003.49
2022-12-15T12:19:50.958Z,1003.44
2022-12-15T12:20:47.798Z,1003.44
2022-12-15T12:21:50.941Z,1003.43
2022-12-15T12:22:47.829Z,1003.38
2022-12-15T12:23:47.836Z,1003.43
2022-12-15T12:25:47.871Z,1003.36
2022-12-15T12:26:48.570Z,1003.34
2022-12-15T12:27:48.718Z,1003.30
2022-12-15T12:28:48.694Z,1003.30
2022-12-15T12:29:48.648Z,1003.29
2022-12-15T12:30:50.483Z,1003.31
2022-12-15T12:31:48.047Z,1003.32
2022-12-15T12:32:47.966Z,1003.32
2022-12-15T12:33:48.680Z,1003.35
2022-12-15T12:34:47.995Z,1003.37
2022-12-15T12:35:48.807Z,1003.31
2022-12-15T12:37:48.045Z,1003.32
2022-12-15T12:38:50.932Z,1003.31
2022-12-15T12:39:48.070Z,1003.30
2022-12-15T12:40:48.087Z,1003.28
2022-12-15T12:41:48.497Z,1003.31
2022-12-15T12:42:48.116Z,1003.29
2022-12-15T12:43:50.277Z,1003.29
2022-12-15T12:44:48.605Z,1003.33
2022-12-15T12:45:50.324Z,1003.32
2022-12-15T12:46:48.848Z,1003.29
2022-12-15T12:47:48.185Z,1003.30
2022-12-15T12:48:48.542Z,1003.29
2022-12-15T12:49:50.098Z,1003.26
2022-12-15T12:50:48.230Z,1003.24
2022-12-15T12:51:48.246Z,1003.23
2022-12-15T12:52:48.258Z,1003.23
2022-12-15T12:54:50.307Z,1003.27
2022-12-15T12:55:48.302Z,1003.26
2022-12-15T12:56:48.832Z,1003.27